Time;durP1;ratioP1;P1;durP2;ratioP2;P2;SDS_P1;SDS_P2;PMS_P1;PMS_P2;Temp;Humidity;BMP_temperature;BMP_pressure;BME280_temperature;BME280_humidity;BME280_pressure;Samples;Min_cycle;Max_cycle;Signal;HPM_P1;HPM_P2
2021/01/06 00:01:07;;;;;;;68.30;31.30;;;;;;;-0.86;94.54;100262.23;1721229;83;21214;-69
2021/01/06 00:03:35;;;;;;;66.20;32.15;;;;;;;-0.85;94.47;100253.64;1721395;83;21367;-70
2021/01/06 00:06:11;;;;;;;73.35;33.18;;;;;;;-0.86;94.38;100255.77;1720863;83;21182;-70
2021/01/06 00:08:43;;;;;;;71.15;32.50;;;;;;;-0.86;94.31;100262.23;1720794;83;21201;-70
2021/01/06 00:11:13;;;;;;;81.05;34.75;;;;;;;-0.86;94.32;100262.23;1720708;83;21653;-71
2021/01/06 00:13:41;;;;;;;81.20;35.23;;;;;;;-0.87;94.28;100247.58;1724403;83;21163;-71
2021/01/06 00:16:09;;;;;;;83.15;37.33;;;;;;;-0.82;94.18;100264.00;1725289;83;21431;-72
2021/01/06 00:18:40;;;;;;;67.27;30.12;;;;;;;-0.82;94.18;100262.71;1717242;82;21210;-70
2021/01/06 00:21:08;;;;;;;64.75;30.70;;;;;;;-0.83;94.06;100267.85;1717197;83;21178;-69
2021/01/06 00:23:37;;;;;;;68.70;32.48;;;;;;;-0.81;94.00;100273.48;1717055;83;21190;-69
2021/01/06 00:26:04;;;;;;;64.42;32.28;;;;;;;-0.81;94.00;100270.89;1717310;83;21138;-71
2021/01/06 00:28:32;;;;;;;62.53;31.27;;;;;;;-0.77;93.97;100267.50;1717235;83;21390;-69
2021/01/06 00:31:00;;;;;;;68.22;31.05;;;;;;;-0.77;93.95;100275.26;1717172;83;21930;-69
2021/01/06 00:33:30;;;;;;;57.62;26.27;;;;;;;-0.78;93.92;100261.91;1717096;83;21482;-69
2021/01/06 00:36:04;;;;;;;56.63;27.95;;;;;;;-0.75;93.64;100268.39;1717306;83;21689;-69
2021/01/06 00:38:32;;;;;;;62.40;29.00;;;;;;;-0.75;93.54;100265.80;1717215;83;21194;-69
2021/01/06 00:41:00;;;;;;;56.45;29.23;;;;;;;-0.75;93.57;100263.65;1717327;83;22341;-69
2021/01/06 00:43:27;;;;;;;66.47;31.57;;;;;;;-0.76;93.58;100258.91;1740486;80;21218;-70
2021/01/06 00:45:56;;;;;;;53.73;24.52;;;;;;;-0.74;93.49;100259.77;1784770;80;21146;-69
2021/01/06 00:48:24;;;;;;;55.52;28.60;;;;;;;-0.72;93.36;100264.53;1784588;80;22076;-72
2021/01/06 00:50:53;;;;;;;68.40;32.73;;;;;;;-0.72;93.26;100258.06;1773173;80;21620;-69
2021/01/06 00:53:24;;;;;;;57.20;27.05;;;;;;;-0.73;93.25;100262.81;1720826;83;22102;-69
2021/01/06 00:55:55;;;;;;;64.55;30.15;;;;;;;-0.73;93.27;100255.05;1720854;83;21237;-71
2021/01/06 00:58:24;;;;;;;65.67;31.37;;;;;;;-0.69;93.24;100246.48;1720673;83;21197;-71
2021/01/06 01:00:54;;;;;;;64.27;31.05;;;;;;;-0.70;93.14;100249.91;1720805;83;21201;-71
2021/01/06 01:03:23;;;;;;;72.92;30.70;;;;;;;-0.71;93.08;100246.03;1687517;83;21181;-70
2021/01/06 01:05:53;;;;;;;61.70;30.27;;;;;;;-0.72;93.18;100245.57;1721056;83;21292;-69
2021/01/06 01:08:20;;;;;;;61.40;30.27;;;;;;;-0.72;93.11;100242.55;1720619;83;21578;-69
2021/01/06 01:10:50;;;;;;;58.25;27.65;;;;;;;-0.72;93.10;100250.31;1720950;83;21616;-70
2021/01/06 01:13:21;;;;;;;68.95;32.35;;;;;;;-0.72;93.18;100242.55;1720594;83;21657;-70
2021/01/06 01:15:52;;;;;;;70.65;32.28;;;;;;;-0.70;93.26;100251.20;1730462;80;21625;-69
2021/01/06 01:18:25;;;;;;;67.32;33.38;;;;;;;-0.70;93.17;100244.73;1784652;80;22209;-70
2021/01/06 01:20:54;;;;;;;62.80;29.92;;;;;;;-0.68;93.14;100240.45;1787408;80;21613;-69
2021/01/06 01:23:24;;;;;;;66.20;30.97;;;;;;;-0.67;93.15;100224.49;1787426;80;21226;-70
2021/01/06 01:25:52;;;;;;;65.57;31.40;;;;;;;-0.67;93.18;100234.84;1787258;80;21174;-70
2021/01/06 01:28:22;;;;;;;63.55;30.45;;;;;;;-0.69;93.20;100233.95;1787149;80;21601;-70
2021/01/06 01:30:51;;;;;;;72.20;32.93;;;;;;;-0.69;93.15;100232.26;1787284;80;21368;-71
2021/01/06 01:33:20;;;;;;;72.55;34.38;;;;;;;-0.69;93.11;100228.38;1787052;80;21161;-71
2021/01/06 01:35:47;;;;;;;69.58;33.02;;;;;;;-0.70;93.21;100233.09;1786986;80;21158;-70
2021/01/06 01:38:20;;;;;;;69.53;30.57;;;;;;;-0.71;93.21;100225.34;1786981;80;21178;-70
2021/01/06 01:40:48;;;;;;;62.80;30.15;;;;;;;-0.69;93.16;100223.20;1787393;80;21126;-70
2021/01/06 01:43:20;;;;;;;62.13;31.48;;;;;;;-0.67;93.15;100215.04;1747303;80;21579;-70
2021/01/06 01:45:56;;;;;;;61.63;29.27;;;;;;;-0.67;93.19;100209.87;1787260;80;21150;-71
2021/01/06 01:48:37;;;;;;;66.40;27.62;;;;;;;-0.68;93.18;100213.29;1787113;80;22142;-70
2021/01/06 01:51:20;;;;;;;71.05;33.60;;;;;;;-0.68;93.17;100213.29;1787208;80;21597;-69
2021/01/06 01:54:10;;;;;;;75.62;33.08;;;;;;;-0.64;93.14;100206.44;1787310;80;21605;-69
2021/01/06 01:57:01;;;;;;;81.12;35.60;;;;;;;-0.66;93.14;100202.53;1787435;80;21369;-69
2021/01/06 01:59:43;;;;;;;74.32;33.33;;;;;;;-0.68;93.13;100195.19;1725957;83;21135;-70
2021/01/06 02:02:26;;;;;;;71.75;32.55;;;;;;;-0.72;93.14;100202.47;1725892;83;21138;-70
2021/01/06 02:04:56;;;;;;;65.57;31.97;;;;;;;-0.73;93.24;100196.86;1725829;83;21605;-70
2021/01/06 02:07:30;;;;;;;79.97;35.43;;;;;;;-0.73;93.30;100199.45;1723721;83;21154;-69
2021/01/06 02:10:02;;;;;;;78.55;35.52;;;;;;;-0.74;93.35;100196.41;1725971;83;21378;-70
2021/01/06 02:12:40;;;;;;;80.38;36.50;;;;;;;-0.75;93.47;100194.69;1725785;83;21222;-67
2021/01/06 02:15:16;;;;;;;73.33;34.15;;;;;;;-0.74;93.47;100197.70;1725474;83;21632;-68
2021/01/06 02:17:45;;;;;;;69.60;34.05;;;;;;;-0.74;93.44;100196.84;1783416;80;21228;-68
2021/01/06 02:20:16;;;;;;;86.63;38.25;;;;;;;-0.74;93.48;100204.16;1781719;80;21582;-71
2021/01/06 02:22:45;;;;;;;79.07;37.78;;;;;;;-0.77;93.61;100207.16;1777855;80;21387;-70
2021/01/06 02:25:14;;;;;;;90.05;36.85;;;;;;;-0.74;93.67;100204.59;1750978;81;21126;-69
2021/01/06 02:27:43;;;;;;;77.53;36.53;;;;;;;-0.72;93.63;100206.34;1751429;81;21558;-69
2021/01/06 02:30:13;;;;;;;78.78;36.73;;;;;;;-0.69;93.62;100201.22;1750961;81;21161;-70
2021/01/06 02:32:41;;;;;;;76.37;33.28;;;;;;;-0.71;93.63;100195.16;1751001;81;21137;-71
2021/01/06 02:35:11;;;;;;;72.75;34.75;;;;;;;-0.72;93.60;100199.87;1750942;81;22252;-71
2021/01/06 02:37:40;;;;;;;68.15;30.55;;;;;;;-0.71;93.63;100199.48;1723936;81;21122;-70
2021/01/06 02:40:10;;;;;;;82.97;37.58;;;;;;;-0.70;93.54;100195.59;1750856;81;21612;-70
2021/01/06 02:42:38;;;;;;;79.58;35.68;;;;;;;-0.72;93.54;100190.83;1751011;81;21693;-70
2021/01/06 02:45:11;;;;;;;88.05;37.95;;;;;;;-0.74;93.57;100179.59;1758963;80;21174;-70
2021/01/06 02:47:40;;;;;;;74.20;35.98;;;;;;;-0.73;93.66;100186.95;1784728;80;21236;-71
2021/01/06 02:50:11;;;;;;;72.12;33.20;;;;;;;-0.72;93.63;100189.53;1784564;80;21661;-71
2021/01/06 02:53:00;;;;;;;83.92;38.55;;;;;;;-0.73;93.65;100196.86;1784887;80;21190;-70
2021/01/06 02:55:29;;;;;;;81.57;35.98;;;;;;;-0.76;93.77;100191.67;1784642;80;21222;-70
2021/01/06 02:57:57;;;;;;;90.20;38.30;;;;;;;-0.72;93.67;100188.67;1756804;80;21138;-70
2021/01/06 03:00:26;;;;;;;83.80;37.28;;;;;;;-0.70;93.60;100183.95;1756216;80;21354;-69
2021/01/06 03:02:54;;;;;;;85.47;38.55;;;;;;;-0.69;93.58;100180.53;1756439;80;21182;-70
2021/01/06 03:05:29;;;;;;;82.30;35.98;;;;;;;-0.68;93.61;100185.27;1784573;80;21648;-71
2021/01/06 03:07:57;;;;;;;90.57;36.23;;;;;;;-0.68;93.66;100177.52;1784679;80;21146;-70
2021/01/06 03:10:24;;;;;;;88.95;36.90;;;;;;;-0.65;93.59;100184.86;1784724;80;21642;-70
2021/01/06 03:12:54;;;;;;;85.20;37.55;;;;;;;-0.67;93.44;100180.13;1784735;80;21622;-70
2021/01/06 03:15:25;;;;;;;94.43;39.13;;;;;;;-0.68;93.50;100177.08;1756287;80;21198;-70
2021/01/06 03:17:54;;;;;;;100.65;40.58;;;;;;;-0.67;93.60;100174.95;1721053;83;21142;-72
2021/01/06 03:20:25;;;;;;;87.40;38.35;;;;;;;-0.68;93.47;100179.66;1725739;83;22011;-72
2021/01/06 03:23:04;;;;;;;96.02;38.15;;;;;;;-0.66;93.42;100179.25;1726082;83;21176;-70
2021/01/06 03:25:31;;;;;;;104.10;41.90;;;;;;;-0.67;93.44;100181.41;1725851;83;22228;-71
2021/01/06 03:28:00;;;;;;;96.53;37.70;;;;;;;-0.67;93.48;100177.53;1725771;83;21189;-72
2021/01/06 03:30:31;;;;;;;84.20;35.60;;;;;;;-0.68;93.46;100174.92;1699608;83;22030;-72
2021/01/06 03:33:11;;;;;;;;;;;;;;;-0.65;93.38;100178.39;1728614;83;21601;-71
2021/01/06 03:35:44;;;;;;;95.85;40.05;;;;;;;-0.64;93.33;100179.28;1726022;83;20235;-69
2021/01/06 03:38:32;;;;;;;97.27;38.35;;;;;;;-0.69;93.47;100177.95;1725882;83;21490;-69
2021/01/06 03:41:00;;;;;;;90.55;37.53;;;;;;;-0.73;93.56;100181.78;1725808;83;21214;-70
2021/01/06 03:43:30;;;;;;;92.35;39.48;;;;;;;-0.70;93.49;100181.37;1725871;83;21632;-69
2021/01/06 03:46:11;;;;;;;95.35;39.00;;;;;;;-0.68;93.57;100184.84;1726184;83;22294;-71
2021/01/06 03:49:04;;;;;;;92.87;37.40;;;;;;;-0.68;93.64;100187.42;1726204;83;21205;-70
2021/01/06 03:52:02;;;;;;;99.67;41.02;;;;;;;-0.66;93.64;100184.86;1726000;83;21625;-68
2021/01/06 03:54:58;;;;;;;87.95;37.53;;;;;;;-0.62;93.46;100189.22;1725978;83;21518;-69
2021/01/06 03:57:27;;;;;;;96.20;40.23;;;;;;;-0.61;93.42;100190.08;1760702;80;21335;-69
2021/01/06 03:59:55;;;;;;;77.47;34.05;;;;;;;-0.63;93.35;100184.88;1742830;81;21173;-71
2021/01/06 04:02:33;;;;;;;;;;;;;;;-0.63;93.42;100188.77;1759043;81;21618;-69
2021/01/06 04:05:16;;;;;;;78.87;31.12;;;;;;;-0.62;93.39;100190.91;1756338;81;22266;-69
2021/01/06 04:07:53;;;;;;;90.12;39.15;;;;;;;-0.61;93.30;100195.25;1756277;81;21169;-69
2021/01/06 04:10:35;;;;;;;93.40;39.42;;;;;;;-0.61;93.32;100193.95;1756331;81;21129;-70
2021/01/06 04:13:06;;;;;;;91.53;38.42;;;;;;;-0.60;93.34;100177.14;1722045;81;21606;-68
2021/01/06 04:15:32;;;;;;;92.00;39.15;;;;;;;-0.60;93.25;100179.72;1757545;80;21581;-68
2021/01/06 04:18:00;;;;;;;92.22;38.28;;;;;;;-0.58;93.18;100174.14;1787450;80;22244;-68
2021/01/06 04:20:35;;;;;;;101.05;40.05;;;;;;;-0.59;93.13;100178.03;1787003;80;21645;-69
2021/01/06 04:23:11;;;;;;;94.28;40.25;;;;;;;-0.59;93.13;100188.38;1787178;80;21181;-69
2021/01/06 04:25:41;;;;;;;108.40;39.18;;;;;;;-0.62;93.20;100173.70;1786990;80;21337;-69
2021/01/06 04:28:14;;;;;;;;;;;;;;;-0.62;93.08;100173.70;1790136;80;21142;-69
2021/01/06 04:30:52;;;;;;;88.35;38.53;;;;;;;-0.61;93.02;100180.59;1773308;80;21389;-70
2021/01/06 04:33:27;;;;;;;102.70;40.78;;;;;;;-0.61;93.18;100184.91;1787068;80;21205;-68
2021/01/06 04:35:57;;;;;;;99.03;39.35;;;;;;;-0.61;93.20;100179.30;1787257;80;21585;-68
2021/01/06 04:38:30;;;;;;;97.02;39.75;;;;;;;-0.62;93.23;100183.16;1787170;80;21166;-68
2021/01/06 04:41:04;;;;;;;80.70;35.98;;;;;;;-0.58;93.12;100190.09;1787338;80;21118;-67
2021/01/06 04:43:51;;;;;;;94.20;37.08;;;;;;;-0.58;93.11;100188.38;1786651;80;22075;-68
2021/01/06 04:46:36;;;;;;;91.22;39.60;;;;;;;-0.60;93.12;100190.07;1786087;80;22332;-68
2021/01/06 04:49:32;;;;;;;96.65;40.12;;;;;;;-0.64;93.15;100180.14;1692653;80;21210;-68
2021/01/06 04:52:39;;;;;;;99.45;38.30;;;;;;;-0.59;93.14;100189.23;1785415;80;21656;-69
2021/01/06 04:55:34;;;;;;;80.63;35.27;;;;;;;-0.54;93.12;100184.11;1846024;76;22913;-67
2021/01/06 04:58:41;;;;;;;98.40;40.03;;;;;;;-0.60;93.16;100186.63;1816375;79;21151;-70
2021/01/06 05:01:51;;;;;;;94.60;39.55;;;;;;;-0.62;93.23;100186.63;1816171;78;22375;-69
2021/01/06 05:04:54;;;;;;;93.78;38.02;;;;;;;-0.60;93.24;100187.48;1816292;79;21051;-69
2021/01/06 05:07:47;;;;;;;93.80;38.40;;;;;;;-0.61;93.31;100183.17;1815991;79;21666;-70
2021/01/06 05:10:23;;;;;;;109.60;41.77;;;;;;;-0.61;93.38;100191.38;1816170;79;21139;-72
2021/01/06 05:12:51;;;;;;;111.55;42.67;;;;;;;-0.64;93.45;100196.95;1816237;79;21159;-71
2021/01/06 05:15:37;;;;;;;150.97;51.73;;;;;;;-0.60;93.39;100194.38;1785012;79;22283;-70
2021/01/06 05:18:05;;;;;;;119.35;43.73;;;;;;;-0.59;93.40;100194.84;1783936;80;21673;-69
2021/01/06 05:20:34;;;;;;;97.15;40.05;;;;;;;-0.62;93.50;100202.55;1783902;80;21629;-70
2021/01/06 05:23:02;;;;;;;107.43;42.23;;;;;;;-0.57;93.42;100206.08;1784099;80;21698;-72
2021/01/06 05:25:34;;;;;;;111.33;41.10;;;;;;;-0.54;93.39;100204.80;1784421;80;21645;-71
2021/01/06 05:28:02;;;;;;;115.45;41.60;;;;;;;-0.53;93.41;100208.70;1784330;80;21269;-71
2021/01/06 05:30:32;;;;;;;111.55;42.58;;;;;;;-0.54;93.39;100209.97;1748935;80;21114;-72
2021/01/06 05:33:08;;;;;;;85.50;34.73;;;;;;;-0.54;93.37;100219.03;1793651;79;21559;-69
2021/01/06 05:35:44;;;;;;;97.88;39.83;;;;;;;-0.52;93.30;100222.06;1800245;79;21092;-69
2021/01/06 05:38:11;;;;;;;121.95;44.98;;;;;;;-0.53;93.44;100220.34;1780107;79;21153;-70
2021/01/06 05:40:41;;;;;;;98.92;40.00;;;;;;;-0.51;93.50;100233.27;1811858;79;21219;-70
2021/01/06 05:43:20;;;;;;;108.42;41.40;;;;;;;-0.52;93.43;100231.13;1745028;82;21670;-70
2021/01/06 05:45:57;;;;;;;108.90;42.25;;;;;;;-0.48;93.35;100225.56;1755096;81;21670;-70
2021/01/06 05:48:53;;;;;;;95.97;34.25;;;;;;;-0.47;93.30;100224.70;1752305;81;21651;-70
2021/01/06 05:51:31;;;;;;;113.40;42.30;;;;;;;-0.47;93.31;100219.52;1725066;81;21165;-69
2021/01/06 05:54:16;;;;;;;107.00;41.65;;;;;;;-0.49;93.39;100216.05;1745975;81;21206;-69
2021/01/06 05:57:06;;;;;;;107.78;39.83;;;;;;;-0.44;93.40;100216.95;1729422;83;21186;-69
2021/01/06 05:59:51;;;;;;;109.22;40.15;;;;;;;-0.45;93.46;100215.23;1728197;81;21652;-70
2021/01/06 06:02:41;;;;;;;89.58;34.55;;;;;;;-0.45;93.48;100217.82;1754323;81;21600;-69
2021/01/06 06:05:43;;;;;;;87.05;32.17;;;;;;;-0.48;93.51;100216.08;1756642;80;21609;-69
2021/01/06 06:08:50;;;;;;;96.22;39.92;;;;;;;-0.46;93.45;100205.72;1786450;80;21374;-70
2021/01/06 06:11:55;;;;;;;109.35;41.10;;;;;;;-0.44;93.54;100210.08;1786297;80;22096;-69
2021/01/06 06:15:01;;;;;;;81.15;30.62;;;;;;;-0.41;93.61;100219.59;1786370;80;21599;-70
2021/01/06 06:18:14;;;;;;;81.00;31.70;;;;;;;-0.39;93.70;100222.16;1759776;80;21544;-64
2021/01/06 06:21:03;;;;;;;92.95;33.98;;;;;;;-0.36;93.62;100229.98;1763995;80;21172;-67
2021/01/06 06:24:19;;;;;;;88.97;34.73;;;;;;;-0.38;93.46;100232.55;1784865;80;21527;-68
2021/01/06 06:27:24;;;;;;;89.13;34.98;;;;;;;-0.40;93.51;100239.42;1785128;79;21245;-70
2021/01/06 06:30:16;;;;;;;93.97;37.58;;;;;;;-0.43;93.68;100243.28;1819847;78;21151;-68
2021/01/06 06:32:44;;;;;;;95.45;37.60;;;;;;;-0.41;93.65;100246.76;1758177;78;21987;-65
2021/01/06 06:35:22;;;;;;;103.00;37.85;;;;;;;-0.43;93.68;100239.41;1714228;82;21182;-67
2021/01/06 06:37:55;;;;;;;109.67;39.20;;;;;;;-0.42;93.87;100242.42;1741346;81;21386;-66
2021/01/06 06:40:24;;;;;;;83.40;33.85;;;;;;;-0.42;93.80;100245.00;1759130;78;21777;-65
2021/01/06 06:43:02;;;;;;;93.50;38.58;;;;;;;-0.39;93.83;100258.39;1762191;81;21181;-65
2021/01/06 06:45:45;;;;;;;78.45;30.65;;;;;;;-0.40;93.90;100257.53;1789064;78;21498;-66
2021/01/06 06:48:39;;;;;;;113.77;41.85;;;;;;;-0.39;94.05;100259.28;1753961;81;21606;-66
2021/01/06 06:51:23;;;;;;;114.85;41.75;;;;;;;-0.39;94.14;100246.34;1661386;85;22370;-68
2021/01/06 06:54:17;;;;;;;116.30;41.53;;;;;;;-0.35;94.12;100245.50;1720768;82;21170;-67
2021/01/06 06:57:16;;;;;;;104.35;39.48;;;;;;;-0.30;94.08;100246.43;1754956;81;21106;-67
2021/01/06 07:00:11;;;;;;;101.70;35.75;;;;;;;-0.31;94.06;100238.20;1759837;80;21089;-67
2021/01/06 07:02:55;;;;;;;111.80;41.42;;;;;;;-0.34;94.17;100235.61;1760803;80;21635;-66
2021/01/06 07:05:48;;;;;;;123.20;43.78;;;;;;;-0.31;94.20;100235.62;1757774;80;22327;-67
2021/01/06 07:08:27;;;;;;;109.60;40.83;;;;;;;-0.30;94.29;100232.59;1741707;82;21169;-68
2021/01/06 07:11:09;;;;;;;120.90;43.52;;;;;;;-0.30;94.38;100232.20;1747116;80;21587;-67
2021/01/06 07:13:37;;;;;;;124.55;42.93;;;;;;;-0.27;94.39;100230.92;1770898;81;21195;-66
2021/01/06 07:16:15;;;;;;;123.18;42.40;;;;;;;-0.24;94.32;100224.47;1763320;80;21171;-67
2021/01/06 07:18:50;;;;;;;107.80;39.05;;;;;;;-0.24;94.30;100225.76;1741654;82;21379;-67
2021/01/06 07:21:28;;;;;;;130.35;45.90;;;;;;;-0.24;94.35;100224.47;1741645;80;21645;-68
2021/01/06 07:24:09;;;;;;;107.12;39.95;;;;;;;-0.26;94.40;100227.89;1747197;80;21138;-68
2021/01/06 07:26:47;;;;;;;107.32;34.30;;;;;;;-0.22;94.27;100229.23;1772327;80;21640;-68
2021/01/06 07:29:17;;;;;;;130.18;44.30;;;;;;;-0.20;94.28;100231.84;1764991;80;21118;-67
2021/01/06 07:31:59;;;;;;;126.67;43.13;;;;;;;-0.25;94.33;100234.39;1741873;80;21598;-68
2021/01/06 07:34:46;;;;;;;117.45;37.90;;;;;;;-0.22;94.29;100234.41;1755094;81;21150;-67
2021/01/06 07:37:49;;;;;;;127.38;38.45;;;;;;;-0.18;94.35;100237.02;1741663;80;21645;-68
2021/01/06 07:40:39;;;;;;;123.33;41.95;;;;;;;-0.22;94.36;100239.58;1741066;82;21206;-68
2021/01/06 07:43:14;;;;;;;134.00;43.95;;;;;;;-0.25;94.46;100240.86;1744164;80;21618;-67
2021/01/06 07:45:54;;;;;;;104.27;36.60;;;;;;;-0.20;94.47;100243.92;1750432;80;22301;-68
2021/01/06 07:48:36;;;;;;;130.78;42.50;;;;;;;-0.19;94.49;100240.47;1750591;80;21206;-68
2021/01/06 07:51:15;;;;;;;124.80;41.42;;;;;;;-0.19;94.52;100243.05;1744038;80;21697;-68
2021/01/06 07:53:52;;;;;;;109.20;38.55;;;;;;;-0.20;94.46;100249.10;1752683;80;21146;-68
2021/01/06 07:56:54;;;;;;;129.75;44.00;;;;;;;-0.22;94.45;100246.05;1750672;80;21250;-68
2021/01/06 07:59:27;;;;;;;122.70;44.42;;;;;;;-0.19;94.51;100248.23;1756609;80;21355;-67
2021/01/06 08:02:09;;;;;;;116.33;41.02;;;;;;;-0.17;94.70;100247.39;1755173;80;21181;-68
2021/01/06 08:04:42;;;;;;;;;;;;;;;-0.14;94.65;100249.12;1799516;79;21163;-67
2021/01/06 08:07:09;;;;;;;118.72;38.73;;;;;;;-0.08;94.61;100253.94;1796175;79;20270;-68
2021/01/06 08:09:42;;;;;;;105.17;34.85;;;;;;;-0.03;94.66;100252.67;1740717;80;21163;-68
2021/01/06 08:12:43;;;;;;;121.75;41.73;;;;;;;-0.01;94.55;100258.73;1794257;79;21174;-68
2021/01/06 08:15:25;;;;;;;124.30;42.38;;;;;;;-0.03;94.34;100261.73;1802214;79;21116;-69
2021/01/06 08:18:09;;;;;;;109.52;37.93;;;;;;;-0.05;94.25;100262.16;1792735;79;21577;-67
2021/01/06 08:21:08;;;;;;;81.95;29.80;;;;;;;-0.05;94.23;100268.63;1741034;77;21210;-66
2021/01/06 08:24:08;;;;;;;125.97;43.43;;;;;;;0.00;94.38;100268.26;1823452;78;22262;-66
2021/01/06 08:26:49;;;;;;;121.30;39.90;;;;;;;-0.03;94.35;100264.33;1712733;82;21614;-66
2021/01/06 08:29:30;;;;;;;124.42;44.53;;;;;;;-0.01;94.30;100266.50;1732616;80;21641;-66
2021/01/06 08:32:14;;;;;;;126.92;43.68;;;;;;;-0.02;94.29;100265.64;1724382;82;21209;-65
2021/01/06 08:34:49;;;;;;;137.70;46.50;;;;;;;-0.01;94.40;100266.07;1733943;79;21277;-77
2021/01/06 08:37:27;;;;;;;192.43;66.50;;;;;;;0.01;94.39;100267.39;1689778;82;21171;-76
2021/01/06 08:39:56;;;;;;;109.97;40.92;;;;;;;0.05;94.30;100269.16;1719619;83;21226;-77
2021/01/06 08:42:28;;;;;;;113.70;39.63;;;;;;;0.11;94.32;100267.02;1713099;82;21657;-77
2021/01/06 08:45:00;;;;;;;178.65;59.18;;;;;;;0.10;94.30;100266.16;1661624;85;21192;-76
2021/01/06 08:47:37;;;;;;;145.65;47.45;;;;;;;0.12;94.28;100270.94;1726294;81;21183;-76
2021/01/06 08:50:28;;;;;;;124.78;44.13;;;;;;;0.09;94.33;100265.74;1702049;81;21644;-65
2021/01/06 08:53:01;;;;;;;137.70;47.53;;;;;;;0.12;94.25;100262.30;1680850;83;21220;-64
2021/01/06 08:55:33;;;;;;;109.30;40.43;;;;;;;0.12;94.22;100264.89;1710257;82;21311;-68
2021/01/06 08:58:07;;;;;;;;;;;;;;;0.11;94.22;100264.00;1718970;83;21220;-67
2021/01/06 09:02:25;;;;;;;173.37;64.63;;;;;;;0.08;94.36;100269.17;1765096;79;22704;-65
2021/01/06 09:05:00;;;;;;;108.57;39.60;;;;;;;0.09;94.41;100261.86;1807450;77;22701;-65
2021/01/06 09:07:30;;;;;;;95.75;36.88;;;;;;;0.08;94.41;100266.58;1790012;79;22037;-65
2021/01/06 09:10:19;;;;;;;85.28;32.53;;;;;;;0.10;94.50;100260.98;1794738;79;22174;-65
2021/01/06 09:13:07;;;;;;;102.90;37.08;;;;;;;0.08;94.51;100265.72;1721893;82;21168;-69
2021/01/06 09:15:51;;;;;;;91.78;32.75;;;;;;;0.05;94.58;100257.50;1753058;79;21198;-64
2021/01/06 09:18:32;;;;;;;90.45;32.55;;;;;;;0.07;94.61;100259.68;1798733;79;21175;-66
2021/01/06 09:21:21;;;;;;;80.57;28.75;;;;;;;0.07;94.62;100267.85;1758311;79;21202;-68
2021/01/06 09:23:52;;;;;;;126.27;43.50;;;;;;;0.04;94.72;100264.81;1793508;79;21349;-65
2021/01/06 09:26:23;;;;;;;79.20;27.60;;;;;;;0.07;94.66;100263.97;1783904;80;21074;-66
2021/01/06 09:29:07;;;;;;;84.85;31.70;;;;;;;0.10;94.75;100270.05;1787109;79;22051;-65
2021/01/06 09:31:47;;;;;;;67.32;26.25;;;;;;;0.10;94.82;100270.05;1784644;79;21179;-65
2021/01/06 09:34:19;;;;;;;62.73;25.20;;;;;;;0.06;94.94;100266.99;1783030;79;21215;-64
2021/01/06 09:36:57;;;;;;;109.03;37.40;;;;;;;0.13;94.89;100273.95;1841469;75;22726;-66
2021/01/06 09:39:26;;;;;;;214.95;66.33;;;;;;;0.10;94.84;100276.52;1741472;81;21622;-67
2021/01/06 09:41:57;;;;;;;152.87;49.18;;;;;;;0.13;94.99;100268.77;1759800;81;22468;-67
2021/01/06 09:44:24;;;;;;;108.37;36.23;;;;;;;0.15;95.08;100268.36;1756977;77;21220;-75
2021/01/06 09:46:58;;;;;;;71.12;27.90;;;;;;;0.18;95.06;100263.22;1736805;82;21163;-76
2021/01/06 09:49:44;;;;;;;149.77;45.83;;;;;;;0.24;94.95;100264.11;1700737;83;21511;-76
2021/01/06 09:52:37;;;;;;;133.20;42.60;;;;;;;0.26;94.79;100265.86;1706491;82;21195;-77
2021/01/06 09:55:06;;;;;;;176.40;54.95;;;;;;;0.23;94.62;100254.19;1732083;82;21410;-78
2021/01/06 09:57:33;;;;;;;94.87;34.88;;;;;;;0.23;94.55;100257.18;1738480;82;21486;-77
2021/01/06 10:00:22;;;;;;;69.05;28.80;;;;;;;0.24;94.58;100251.16;1744697;78;21695;-66
2021/01/06 10:02:50;;;;;;;78.67;30.17;;;;;;;0.30;94.71;100260.25;1798694;79;21167;-66
2021/01/06 10:05:39;;;;;;;70.70;30.08;;;;;;;0.32;94.77;100254.66;1799105;77;21148;-66
2021/01/06 10:08:30;;;;;;;136.22;42.83;;;;;;;0.36;94.82;100255.13;1794263;79;21424;-65
2021/01/06 10:11:29;;;;;;;145.20;45.70;;;;;;;0.35;94.62;100255.99;1800523;79;21128;-65
2021/01/06 10:14:24;;;;;;;107.10;34.05;;;;;;;0.36;94.52;100247.34;1783887;79;21134;-65
2021/01/06 10:17:26;;;;;;;71.95;28.75;;;;;;;0.39;94.69;100252.53;1729458;81;21177;-67
2021/01/06 10:20:28;;;;;;;112.52;35.38;;;;;;;0.37;94.57;100245.21;1740957;81;21166;-66
2021/01/06 10:23:01;;;;;;;97.55;32.48;;;;;;;0.35;94.61;100250.81;1713653;81;21389;-66
2021/01/06 10:25:47;;;;;;;84.37;33.75;;;;;;;0.37;94.65;100242.62;1750402;81;21206;-67
2021/01/06 10:28:36;;;;;;;84.52;31.02;;;;;;;0.43;94.83;100242.64;1750604;81;21174;-65
2021/01/06 10:31:15;;;;;;;151.72;50.28;;;;;;;0.44;94.67;100241.80;1757298;78;21246;-77
2021/01/06 10:34:08;;;;;;;86.30;34.10;;;;;;;0.43;94.70;100242.64;1759347;81;21177;-76
2021/01/06 10:37:07;;;;;;;69.75;28.20;;;;;;;0.48;94.71;100243.96;1753475;81;21388;-76
2021/01/06 10:39:47;;;;;;;84.28;32.17;;;;;;;0.49;94.58;100245.71;1765844;81;21175;-76
2021/01/06 10:42:32;;;;;;;77.32;29.10;;;;;;;0.46;94.54;100252.15;1765373;81;22120;-76
2021/01/06 10:45:28;;;;;;;84.52;32.08;;;;;;;0.44;94.62;100252.16;1735901;79;21305;-67
2021/01/06 10:47:56;;;;;;;93.30;34.75;;;;;;;0.46;94.57;100253.04;1680411;83;21183;-64
2021/01/06 10:50:33;;;;;;;93.42;35.63;;;;;;;0.47;94.57;100249.58;1693845;83;21395;-63
2021/01/06 10:53:25;;;;;;;78.10;29.95;;;;;;;0.49;94.77;100248.30;1698517;83;21490;-63
2021/01/06 10:56:06;;;;;;;113.20;38.70;;;;;;;0.50;94.90;100249.59;1736373;82;21175;-62
2021/01/06 10:58:38;;;;;;;;;;;;;;;0.52;94.84;100257.37;1705819;83;21244;-64
2021/01/06 11:01:17;;;;;;;70.97;26.45;;;;;;;0.55;94.83;100259.58;1724609;78;20298;-78
2021/01/06 11:04:36;;;;;;;52.35;20.60;;;;;;;0.56;94.75;100260.00;1713643;83;21642;-77
2021/01/06 11:07:33;;;;;;;57.83;22.67;;;;;;;0.57;94.73;100255.67;1718815;83;21936;-73
2021/01/06 11:13:18;;;;;;;59.42;22.20;;;;;;;0.57;94.71;100250.05;1793822;79;21664;-77
2021/01/06 11:16:12;;;;;;;67.13;22.07;;;;;;;0.65;94.66;100254.44;1744435;77;22835;-63
2021/01/06 11:18:46;;;;;;;55.23;20.60;;;;;;;0.53;94.58;100254.80;1674156;85;21279;-65
2021/01/06 11:21:23;;;;;;;63.65;25.40;;;;;;;0.50;94.71;100259.95;1704169;81;21324;-63
2021/01/06 11:23:56;;;;;;;55.33;23.12;;;;;;;0.50;94.69;100254.77;1674613;85;21599;-65
2021/01/06 11:26:39;;;;;;;59.23;24.25;;;;;;;0.48;94.72;100256.91;1703955;84;21322;-63
2021/01/06 11:29:21;;;;;;;69.60;26.35;;;;;;;0.47;94.91;100258.65;1674546;85;21279;-64
2021/01/06 11:32:19;;;;;;;207.43;79.53;;;;;;;0.52;94.92;100260.83;1694937;81;21220;-77
2021/01/06 11:34:52;;;;;;;68.05;26.82;;;;;;;0.52;94.87;100254.34;1685039;84;22138;-76
2021/01/06 11:37:29;;;;;;;62.80;22.50;;;;;;;0.56;95.02;100260.44;1672526;83;21254;-74
2021/01/06 11:39:57;;;;;;;45.35;20.02;;;;;;;0.56;94.95;100260.00;1717431;83;21692;-75
2021/01/06 11:42:44;;;;;;;46.20;19.52;;;;;;;0.56;94.75;100263.88;1693262;84;21712;-76
2021/01/06 11:45:24;;;;;;;65.22;25.10;;;;;;;0.54;94.76;100260.84;1723728;83;21230;-74
2021/01/06 11:48:01;;;;;;;62.88;23.40;;;;;;;0.53;94.72;100266.88;1616325;87;21255;-63
2021/01/06 11:50:48;;;;;;;46.85;19.02;;;;;;;0.52;94.82;100268.61;1650215;85;21249;-64
2021/01/06 11:53:28;;;;;;;51.63;19.48;;;;;;;0.53;94.74;100262.98;1624527;86;21662;-63
2021/01/06 11:56:28;;;;;;;72.10;26.45;;;;;;;0.56;94.74;100266.91;1646129;86;21266;-63
2021/01/06 11:59:10;;;;;;;59.70;20.82;;;;;;;0.56;94.88;100262.59;1642833;86;21252;-64
2021/01/06 12:01:44;;;;;;;68.85;24.57;;;;;;;0.59;94.93;100254.81;1646563;86;21431;-64
2021/01/06 12:04:59;;;;;;;62.62;25.50;;;;;;;0.65;94.87;100255.73;1650593;86;21229;-63
2021/01/06 12:07:48;;;;;;;68.70;26.27;;;;;;;0.71;94.98;100250.56;1651545;85;21210;-62
2021/01/06 12:11:04;;;;;;;237.65;60.23;;;;;;;0.75;94.99;100248.42;1656881;81;21153;-79